Time;durP1;ratioP1;P1;durP2;ratioP2;P2;SDS_P1;SDS_P2;PMS_P1;PMS_P2;Temp;Humidity;BMP_temperature;BMP_pressure;BME280_temperature;BME280_humidity;BME280_pressure;Samples;Min_cycle;Max_cycle;Signal;HPM_P1;HPM_P2
2021/01/18 00:01:27;;;;;;;92.47;36.57;;;;;;;;;;5012472;28;20640;-87
2021/01/18 00:03:52;;;;;;;88.27;35.90;;;;;;;;;;5012940;28;20181;-87
2021/01/18 00:06:18;;;;;;;88.20;36.47;;;;;;;;;;5012809;28;20173;-86
2021/01/18 00:08:44;;;;;;;83.63;35.50;;;;;;;;;;5011853;28;20628;-86
2021/01/18 00:11:10;;;;;;;87.27;35.40;;;;;;;;;;5013098;28;20184;-86
2021/01/18 00:13:36;;;;;;;93.30;35.93;;;;;;;;;;5014981;28;20177;-86
2021/01/18 00:16:02;;;;;;;91.13;39.17;;;;;;;;;;5016345;28;20260;-86
2021/01/18 00:18:28;;;;;;;93.83;36.07;;;;;;;;;;5016144;28;20279;-86
2021/01/18 00:20:54;;;;;;;72.63;33.57;;;;;;;;;;5016526;28;20671;-86
2021/01/18 00:23:19;;;;;;;84.00;36.00;;;;;;;;;;5015177;28;20272;-86
2021/01/18 00:25:45;;;;;;;84.30;33.03;;;;;;;;;;5016087;28;20682;-86
2021/01/18 00:28:10;;;;;;;75.07;32.57;;;;;;;;;;5014856;28;20655;-86
2021/01/18 00:30:35;;;;;;;91.10;34.50;;;;;;;;;;5015790;28;20235;-86
2021/01/18 00:33:01;;;;;;;86.40;34.33;;;;;;;;;;5016094;28;20173;-86
2021/01/18 00:35:28;;;;;;;87.70;36.33;;;;;;;;;;5014838;28;20592;-86
2021/01/18 00:37:54;;;;;;;81.17;34.10;;;;;;;;;;5014802;28;20532;-86
2021/01/18 00:40:23;;;;;;;87.17;35.97;;;;;;;;;;5015613;28;20190;-86
2021/01/18 00:42:49;;;;;;;78.13;32.23;;;;;;;;;;5016005;28;20230;-86
2021/01/18 00:45:15;;;;;;;83.63;35.33;;;;;;;;;;5015958;28;20973;-86
2021/01/18 00:47:45;;;;;;;83.30;34.83;;;;;;;;;;5014679;28;20671;-85
2021/01/18 00:50:12;;;;;;;89.77;34.70;;;;;;;;;;5014408;28;20534;-86
2021/01/18 00:52:41;;;;;;;81.70;33.13;;;;;;;;;;5016364;28;20174;-86
2021/01/18 00:55:10;;;;;;;82.47;34.37;;;;;;;;;;5015826;28;20531;-86
2021/01/18 00:57:36;;;;;;;91.77;38.47;;;;;;;;;;5015470;28;20379;-85
2021/01/18 01:00:01;;;;;;;92.07;35.93;;;;;;;;;;5014473;28;20276;-86
2021/01/18 01:02:26;;;;;;;89.37;35.93;;;;;;;;;;5015444;28;20249;-86
2021/01/18 01:04:52;;;;;;;84.57;35.87;;;;;;;;;;5014502;28;20181;-86
2021/01/18 01:07:17;;;;;;;80.23;34.33;;;;;;;;;;5015286;28;20205;-85
2021/01/18 01:09:43;;;;;;;79.50;33.47;;;;;;;;;;5015598;28;20173;-86
2021/01/18 01:12:08;;;;;;;84.17;34.70;;;;;;;;;;5015398;28;20181;-86
2021/01/18 01:14:33;;;;;;;81.33;34.53;;;;;;;;;;5015696;28;20185;-86
2021/01/18 01:16:59;;;;;;;78.20;33.87;;;;;;;;;;5015751;28;20232;-86
2021/01/18 01:19:24;;;;;;;87.50;36.27;;;;;;;;;;5015878;28;20173;-86
2021/01/18 01:21:49;;;;;;;87.67;34.70;;;;;;;;;;5015884;28;20543;-86
2021/01/18 01:24:16;;;;;;;91.30;36.80;;;;;;;;;;5014872;28;20170;-86
2021/01/18 01:26:42;;;;;;;77.90;35.00;;;;;;;;;;5014544;28;20205;-86
2021/01/18 01:29:07;;;;;;;88.00;35.53;;;;;;;;;;5015907;28;20169;-86
2021/01/18 01:31:32;;;;;;;93.27;36.53;;;;;;;;;;5015842;28;20200;-86
2021/01/18 01:33:57;;;;;;;86.10;35.43;;;;;;;;;;5015501;28;20532;-85
2021/01/18 01:36:23;;;;;;;90.23;36.97;;;;;;;;;;5016251;28;20226;-86
2021/01/18 01:38:48;;;;;;;91.37;36.47;;;;;;;;;;5015957;28;20191;-86
2021/01/18 01:41:13;;;;;;;85.50;35.23;;;;;;;;;;5015891;28;20624;-86
2021/01/18 01:43:39;;;;;;;76.20;34.03;;;;;;;;;;5016129;28;20169;-86
2021/01/18 01:46:04;;;;;;;82.47;34.87;;;;;;;;;;5015271;28;20196;-87
2021/01/18 01:48:31;;;;;;;77.97;33.80;;;;;;;;;;5015647;28;20211;-87
2021/01/18 01:50:56;;;;;;;89.47;34.20;;;;;;;;;;5015007;28;20702;-87
2021/01/18 01:53:26;;;;;;;78.87;34.90;;;;;;;;;;5015141;28;20181;-86
2021/01/18 01:55:51;;;;;;;78.47;35.20;;;;;;;;;;5028213;28;20173;-87
2021/01/18 01:58:16;;;;;;;84.53;33.77;;;;;;;;;;5039858;28;20241;-86
2021/01/18 02:00:42;;;;;;;70.40;30.77;;;;;;;;;;5036247;28;20248;-86
2021/01/18 02:03:08;;;;;;;88.87;35.83;;;;;;;;;;5024960;28;20243;-86
2021/01/18 02:05:34;;;;;;;85.70;35.60;;;;;;;;;;5023804;28;20177;-86
2021/01/18 02:08:00;;;;;;;99.50;36.87;;;;;;;;;;5015552;28;20628;-86
2021/01/18 02:10:25;;;;;;;94.93;38.70;;;;;;;;;;5014862;28;20185;-86
2021/01/18 02:12:50;;;;;;;95.53;37.93;;;;;;;;;;5015424;28;20269;-86
2021/01/18 02:15:30;;;;;;;94.60;38.67;;;;;;;;;;5015266;28;20219;-86
2021/01/18 02:18:05;;;;;;;99.03;39.07;;;;;;;;;;5015424;28;20169;-86
2021/01/18 02:20:36;;;;;;;99.53;36.80;;;;;;;;;;5015031;28;20168;-86
2021/01/18 02:23:01;;;;;;;91.40;34.63;;;;;;;;;;5015163;28;20204;-86
2021/01/18 02:25:26;;;;;;;94.13;37.13;;;;;;;;;;5015172;28;20211;-86
2021/01/18 02:27:58;;;;;;;95.10;37.93;;;;;;;;;;5014290;28;20292;-86
2021/01/18 02:30:42;;;;;;;96.00;36.33;;;;;;;;;;5015078;28;20226;-86
2021/01/18 02:33:07;;;;;;;82.60;34.73;;;;;;;;;;5014949;28;20177;-86
2021/01/18 02:35:41;;;;;;;98.40;35.33;;;;;;;;;;5014230;28;20185;-86
2021/01/18 02:38:14;;;;;;;97.57;36.83;;;;;;;;;;5014685;28;20263;-86
2021/01/18 02:40:57;;;;;;;98.97;38.00;;;;;;;;;;5014349;28;20173;-86
2021/01/18 02:43:26;;;;;;;105.07;38.73;;;;;;;;;;5014537;28;20212;-86
2021/01/18 02:45:51;;;;;;;94.37;36.00;;;;;;;;;;5014566;28;20173;-86
2021/01/18 02:48:17;;;;;;;105.50;37.70;;;;;;;;;;5014519;28;20197;-85
2021/01/18 02:50:43;;;;;;;95.03;36.80;;;;;;;;;;5014544;28;20705;-86
2021/01/18 02:53:09;;;;;;;96.10;35.30;;;;;;;;;;5014874;28;20169;-85
2021/01/18 02:55:34;;;;;;;100.13;37.20;;;;;;;;;;5014529;28;20312;-85
2021/01/18 02:58:03;;;;;;;93.07;37.97;;;;;;;;;;5014483;28;20311;-85
2021/01/18 03:00:32;;;;;;;97.63;36.20;;;;;;;;;;5014632;28;20173;-85
2021/01/18 03:03:06;;;;;;;110.30;38.83;;;;;;;;;;5014066;28;20168;-85
2021/01/18 03:05:45;;;;;;;100.47;37.97;;;;;;;;;;5014610;28;20167;-85
2021/01/18 03:08:22;;;;;;;98.40;38.33;;;;;;;;;;5013918;28;20274;-85
2021/01/18 03:11:04;;;;;;;92.23;36.40;;;;;;;;;;5014840;28;20200;-85
2021/01/18 03:13:36;;;;;;;92.90;34.67;;;;;;;;;;5014528;28;20165;-85
2021/01/18 03:16:04;;;;;;;98.97;36.73;;;;;;;;;;5014456;28;20241;-86
2021/01/18 03:18:32;;;;;;;98.00;36.10;;;;;;;;;;5014629;28;20191;-86
2021/01/18 03:20:57;;;;;;;96.23;36.83;;;;;;;;;;5014610;28;20260;-86
2021/01/18 03:23:23;;;;;;;96.53;36.53;;;;;;;;;;5013801;28;20592;-86
2021/01/18 03:25:52;;;;;;;99.27;38.07;;;;;;;;;;5014259;28;20493;-85
2021/01/18 03:28:18;;;;;;;99.47;37.60;;;;;;;;;;5013694;28;20197;-85
2021/01/18 03:30:44;;;;;;;97.43;36.77;;;;;;;;;;5014353;28;20184;-85
2021/01/18 03:33:09;;;;;;;113.93;40.20;;;;;;;;;;5013641;28;20622;-85
2021/01/18 03:35:34;;;;;;;119.17;42.27;;;;;;;;;;5014299;28;20227;-85
2021/01/18 03:38:00;;;;;;;119.73;41.77;;;;;;;;;;5014228;28;20214;-85
2021/01/18 03:40:26;;;;;;;120.00;43.60;;;;;;;;;;5013922;28;20176;-85
2021/01/18 03:43:12;;;;;;;126.30;46.27;;;;;;;;;;5013878;28;20166;-85
2021/01/18 03:45:39;;;;;;;133.63;46.30;;;;;;;;;;5014895;28;20192;-85
2021/01/18 03:48:05;;;;;;;139.83;50.57;;;;;;;;;;5018107;28;20283;-85
2021/01/18 03:50:30;;;;;;;148.73;53.33;;;;;;;;;;5017987;28;20172;-86
2021/01/18 03:52:56;;;;;;;148.23;52.43;;;;;;;;;;5018270;28;20185;-86
2021/01/18 03:55:21;;;;;;;128.80;45.13;;;;;;;;;;5017725;28;20184;-86
2021/01/18 03:57:51;;;;;;;127.30;45.33;;;;;;;;;;5017145;28;20233;-85
2021/01/18 04:00:17;;;;;;;175.33;55.40;;;;;;;;;;5017573;28;20173;-84
2021/01/18 04:02:43;;;;;;;201.87;62.80;;;;;;;;;;5015943;28;20176;-84
2021/01/18 04:05:09;;;;;;;252.50;77.70;;;;;;;;;;5016272;28;20640;-84
2021/01/18 04:07:34;;;;;;;295.83;90.07;;;;;;;;;;5017655;28;20231;-84
2021/01/18 04:10:00;;;;;;;342.30;91.10;;;;;;;;;;5029672;28;20185;-84
2021/01/18 04:12:25;;;;;;;251.53;72.57;;;;;;;;;;5042296;28;20157;-84
2021/01/18 04:14:50;;;;;;;238.43;65.20;;;;;;;;;;5041905;28;20173;-86
2021/01/18 04:17:16;;;;;;;407.50;109.37;;;;;;;;;;5030943;28;20180;-86
2021/01/18 04:19:41;;;;;;;241.03;71.87;;;;;;;;;;5023924;28;20180;-85
2021/01/18 04:22:07;;;;;;;165.17;54.70;;;;;;;;;;5019821;28;20176;-85
2021/01/18 04:24:35;;;;;;;157.40;53.00;;;;;;;;;;5016889;28;20255;-85
2021/01/18 04:27:00;;;;;;;152.03;51.03;;;;;;;;;;5017259;28;20205;-85
2021/01/18 04:29:26;;;;;;;146.37;52.63;;;;;;;;;;5016987;28;20630;-85
2021/01/18 04:31:51;;;;;;;144.73;49.70;;;;;;;;;;5017471;28;20169;-85
2021/01/18 04:34:16;;;;;;;159.13;53.23;;;;;;;;;;5017146;28;20173;-85
2021/01/18 04:36:42;;;;;;;125.53;45.57;;;;;;;;;;5017157;28;20170;-85
2021/01/18 04:39:08;;;;;;;135.73;48.37;;;;;;;;;;5016884;28;20176;-85
2021/01/18 04:41:37;;;;;;;139.50;49.93;;;;;;;;;;5016654;28;20188;-85
2021/01/18 04:44:05;;;;;;;144.17;49.53;;;;;;;;;;5017174;28;20204;-85
2021/01/18 04:46:36;;;;;;;137.23;46.13;;;;;;;;;;5016381;28;20170;-85
2021/01/18 04:49:01;;;;;;;116.30;43.27;;;;;;;;;;5016969;28;20259;-85
2021/01/18 04:51:27;;;;;;;133.87;49.27;;;;;;;;;;5017169;28;20279;-85
2021/01/18 04:53:53;;;;;;;136.93;48.93;;;;;;;;;;5016579;28;20175;-85
2021/01/18 04:56:36;;;;;;;121.53;44.50;;;;;;;;;;5016516;28;20179;-85
2021/01/18 04:59:02;;;;;;;129.67;46.93;;;;;;;;;;5016300;28;20251;-84
2021/01/18 05:01:29;;;;;;;115.37;45.67;;;;;;;;;;5016452;28;20616;-84
2021/01/18 05:04:02;;;;;;;123.53;46.03;;;;;;;;;;5016415;28;20608;-84
2021/01/18 05:06:33;;;;;;;149.20;51.73;;;;;;;;;;5016284;28;20665;-85
2021/01/18 05:09:10;;;;;;;136.30;51.10;;;;;;;;;;5016002;28;20175;-85
2021/01/18 05:11:36;;;;;;;155.03;57.10;;;;;;;;;;5016089;28;20169;-85
2021/01/18 05:14:02;;;;;;;166.97;62.07;;;;;;;;;;5015972;28;20180;-85
2021/01/18 05:16:35;;;;;;;153.20;56.83;;;;;;;;;;5016368;28;20165;-85
2021/01/18 05:19:12;;;;;;;156.93;58.43;;;;;;;;;;5016068;28;20519;-85
2021/01/18 05:21:42;;;;;;;169.93;65.00;;;;;;;;;;5015971;28;20169;-85
2021/01/18 05:24:08;;;;;;;175.23;58.37;;;;;;;;;;5016218;28;20524;-85
2021/01/18 05:26:34;;;;;;;176.50;60.53;;;;;;;;;;5016425;28;20259;-85
2021/01/18 05:28:59;;;;;;;212.33;69.17;;;;;;;;;;5015916;28;20263;-85
2021/01/18 05:31:28;;;;;;;185.90;61.47;;;;;;;;;;5014610;28;20181;-85
2021/01/18 05:33:59;;;;;;;194.43;59.67;;;;;;;;;;5015796;28;20181;-85
2021/01/18 05:36:38;;;;;;;170.83;60.43;;;;;;;;;;5015791;28;20179;-85
2021/01/18 05:39:09;;;;;;;244.60;82.97;;;;;;;;;;5016234;28;20173;-85
2021/01/18 05:41:35;;;;;;;176.83;59.67;;;;;;;;;;5016009;28;20275;-85
2021/01/18 05:44:01;;;;;;;159.87;55.20;;;;;;;;;;5015572;28;20204;-85
2021/01/18 05:46:27;;;;;;;171.37;58.07;;;;;;;;;;5015532;28;20177;-85
2021/01/18 05:48:53;;;;;;;181.43;60.60;;;;;;;;;;5016128;28;20509;-85
2021/01/18 05:51:19;;;;;;;185.00;63.13;;;;;;;;;;5015184;28;20170;-85
2021/01/18 05:53:45;;;;;;;180.80;63.33;;;;;;;;;;5015694;28;20622;-85
2021/01/18 05:56:17;;;;;;;186.57;63.80;;;;;;;;;;5015375;28;20208;-85
2021/01/18 05:58:44;;;;;;;207.90;67.57;;;;;;;;;;5014867;28;20229;-85
2021/01/18 06:01:09;;;;;;;190.50;64.70;;;;;;;;;;5015305;28;20512;-85
2021/01/18 06:03:35;;;;;;;186.07;64.23;;;;;;;;;;5013948;28;20185;-85
2021/01/18 06:06:00;;;;;;;210.67;69.70;;;;;;;;;;5015215;28;20180;-84
2021/01/18 06:08:26;;;;;;;319.83;100.60;;;;;;;;;;5015055;28;20207;-85
2021/01/18 06:10:52;;;;;;;289.90;89.47;;;;;;;;;;5013813;28;20184;-85
2021/01/18 06:13:27;;;;;;;265.17;85.00;;;;;;;;;;5015311;28;20256;-85
2021/01/18 06:16:11;;;;;;;281.37;84.83;;;;;;;;;;5015543;28;20513;-85
2021/01/18 06:18:38;;;;;;;239.90;77.37;;;;;;;;;;5014510;28;20527;-85
2021/01/18 06:21:05;;;;;;;236.37;80.83;;;;;;;;;;5014632;28;20177;-85
2021/01/18 06:23:30;;;;;;;194.23;65.40;;;;;;;;;;5015185;28;20169;-85
2021/01/18 06:25:56;;;;;;;148.10;54.53;;;;;;;;;;5014798;28;20608;-85
2021/01/18 06:28:29;;;;;;;141.50;52.50;;;;;;;;;;5014759;28;20288;-85
2021/01/18 06:30:59;;;;;;;160.53;54.03;;;;;;;;;;5013486;28;20177;-85
2021/01/18 06:33:36;;;;;;;146.50;50.67;;;;;;;;;;5015250;28;20169;-85
2021/01/18 06:36:15;;;;;;;132.73;47.47;;;;;;;;;;5014711;28;20504;-85
2021/01/18 06:38:42;;;;;;;134.67;47.53;;;;;;;;;;5015253;28;20212;-85
2021/01/18 06:41:08;;;;;;;157.30;59.80;;;;;;;;;;5014594;28;20644;-85
2021/01/18 06:43:33;;;;;;;138.17;50.93;;;;;;;;;;5014487;28;20203;-86
2021/01/18 06:45:59;;;;;;;119.90;43.17;;;;;;;;;;5013571;28;20185;-85
2021/01/18 06:48:26;;;;;;;109.57;40.97;;;;;;;;;;5014321;28;20717;-85
2021/01/18 06:50:51;;;;;;;128.53;45.33;;;;;;;;;;5014207;28;20272;-86
2021/01/18 06:53:17;;;;;;;114.07;42.73;;;;;;;;;;5015171;28;20201;-86
2021/01/18 06:56:12;;;;;;;114.67;42.87;;;;;;;;;;5015035;28;20180;-86
2021/01/18 06:58:57;;;;;;;119.27;44.47;;;;;;;;;;5009452;28;20328;-85
2021/01/18 07:01:34;;;;;;;144.57;48.40;;;;;;;;;;5013982;28;20228;-86
2021/01/18 07:04:06;;;;;;;145.27;52.17;;;;;;;;;;5014773;28;20259;-85
2021/01/18 07:06:33;;;;;;;109.70;42.23;;;;;;;;;;5014705;28;20183;-85
2021/01/18 07:08:59;;;;;;;81.20;31.53;;;;;;;;;;5014173;28;20627;-85
2021/01/18 07:11:25;;;;;;;97.50;39.00;;;;;;;;;;5014250;28;20260;-85
2021/01/18 07:13:50;;;;;;;63.93;28.43;;;;;;;;;;5014134;28;20600;-85
2021/01/18 07:16:20;;;;;;;107.23;43.03;;;;;;;;;;5014364;28;20180;-85
2021/01/18 07:18:50;;;;;;;105.60;38.07;;;;;;;;;;5012830;28;20252;-85
2021/01/18 07:21:18;;;;;;;82.27;30.63;;;;;;;;;;5012280;28;20173;-85
2021/01/18 07:23:48;;;;;;;72.53;28.27;;;;;;;;;;5014019;28;20260;-85
2021/01/18 07:26:29;;;;;;;70.10;26.63;;;;;;;;;;5012908;28;20200;-86
2021/01/18 07:28:55;;;;;;;65.90;26.63;;;;;;;;;;5014027;28;20173;-87
2021/01/18 07:31:20;;;;;;;104.17;42.83;;;;;;;;;;5012653;28;20209;-86
2021/01/18 07:33:47;;;;;;;80.37;30.93;;;;;;;;;;5012669;28;20204;-86
2021/01/18 07:36:22;;;;;;;119.67;42.27;;;;;;;;;;5014244;28;20200;-86
2021/01/18 07:38:47;;;;;;;97.90;38.90;;;;;;;;;;5014236;28;20211;-86
2021/01/18 07:41:13;;;;;;;104.97;40.90;;;;;;;;;;5014687;28;20173;-85
2021/01/18 07:43:43;;;;;;;98.97;37.60;;;;;;;;;;5013515;28;20176;-85
2021/01/18 07:46:28;;;;;;;112.97;45.73;;;;;;;;;;5014362;28;20162;-85
2021/01/18 07:49:12;;;;;;;91.70;35.13;;;;;;;;;;5014060;28;20208;-86
2021/01/18 07:51:37;;;;;;;84.20;33.93;;;;;;;;;;5013450;28;20176;-86
2021/01/18 07:54:02;;;;;;;113.13;48.77;;;;;;;;;;5013780;28;20169;-86
2021/01/18 07:56:29;;;;;;;90.40;35.80;;;;;;;;;;5014288;28;20216;-86
2021/01/18 07:58:57;;;;;;;90.57;38.10;;;;;;;;;;5013772;28;20232;-85
2021/01/18 08:01:49;;;;;;;114.13;47.93;;;;;;;;;;5013430;28;20174;-85
2021/01/18 08:04:17;;;;;;;124.77;46.83;;;;;;;;;;5012524;28;20209;-86
2021/01/18 08:07:01;;;;;;;100.73;41.00;;;;;;;;;;5013822;28;20256;-86
2021/01/18 08:09:27;;;;;;;84.90;33.77;;;;;;;;;;5012235;28;20173;-86
2021/01/18 08:11:53;;;;;;;89.03;38.47;;;;;;;;;;5013993;28;20184;-86
2021/01/18 08:14:18;;;;;;;116.47;48.80;;;;;;;;;;5013802;28;20200;-86
2021/01/18 08:16:44;;;;;;;109.73;45.60;;;;;;;;;;5014136;28;20204;-86
2021/01/18 08:19:18;;;;;;;84.67;36.90;;;;;;;;;;5013734;28;20612;-87
2021/01/18 08:21:45;;;;;;;95.13;39.97;;;;;;;;;;5013692;28;20256;-86
2021/01/18 08:24:15;;;;;;;69.73;28.97;;;;;;;;;;5013222;28;20624;-87
2021/01/18 08:26:54;;;;;;;78.00;30.50;;;;;;;;;;5013357;28;20300;-87
2021/01/18 08:29:38;;;;;;;66.33;30.30;;;;;;;;;;5013949;28;20169;-86
2021/01/18 08:32:30;;;;;;;65.20;27.83;;;;;;;;;;5013658;28;20204;-87
2021/01/18 08:35:03;;;;;;;68.73;27.03;;;;;;;;;;5017411;28;20252;-86
2021/01/18 08:37:30;;;;;;;65.50;25.37;;;;;;;;;;5016572;28;20177;-87
2021/01/18 08:39:56;;;;;;;67.23;29.80;;;;;;;;;;5014347;28;20224;-86
2021/01/18 08:42:29;;;;;;;66.93;32.00;;;;;;;;;;5003033;28;20653;-85
2021/01/18 08:45:11;;;;;;;62.00;28.80;;;;;;;;;;5015242;28;20173;-85
2021/01/18 08:47:41;;;;;;;65.73;29.03;;;;;;;;;;5014952;28;20295;-85
2021/01/18 08:50:17;;;;;;;63.57;27.67;;;;;;;;;;5016523;28;20184;-85
2021/01/18 08:52:42;;;;;;;72.80;29.60;;;;;;;;;;5016558;28;20523;-85
2021/01/18 08:55:26;;;;;;;77.37;31.93;;;;;;;;;;5016720;28;20184;-86
2021/01/18 08:57:53;;;;;;;94.07;38.07;;;;;;;;;;5015794;28;20630;-86
2021/01/18 09:00:18;;;;;;;84.07;41.17;;;;;;;;;;5015061;28;20243;-86
2021/01/18 09:02:47;;;;;;;95.07;36.60;;;;;;;;;;5016021;28;20177;-86
2021/01/18 09:05:15;;;;;;;105.53;41.70;;;;;;;;;;5015978;28;20186;-86
2021/01/18 09:07:44;;;;;;;84.33;36.97;;;;;;;;;;5016300;28;20229;-85
2021/01/18 09:10:13;;;;;;;100.47;43.87;;;;;;;;;;5015808;28;20169;-86
2021/01/18 09:12:39;;;;;;;77.93;35.27;;;;;;;;;;5014906;28;20181;-86
2021/01/18 09:15:07;;;;;;;83.97;36.27;;;;;;;;;;5015189;28;20180;-86
2021/01/18 09:17:33;;;;;;;88.40;37.37;;;;;;;;;;5015173;28;20698;-85
2021/01/18 09:20:02;;;;;;;120.97;53.53;;;;;;;;;;5012293;28;20257;-85
2021/01/18 09:22:27;;;;;;;116.17;47.77;;;;;;;;;;5015010;28;20177;-85
2021/01/18 09:24:53;;;;;;;157.60;64.33;;;;;;;;;;5013761;28;20180;-86
2021/01/18 09:27:19;;;;;;;104.03;43.03;;;;;;;;;;5015075;28;20193;-86
2021/01/18 09:29:57;;;;;;;120.83;53.07;;;;;;;;;;5014856;28;20169;-85
2021/01/18 09:32:22;;;;;;;79.67;35.23;;;;;;;;;;5014925;28;20241;-86
2021/01/18 09:35:01;;;;;;;96.10;43.37;;;;;;;;;;5014990;28;20203;-85
2021/01/18 09:37:26;;;;;;;107.17;48.53;;;;;;;;;;5014538;28;20574;-85
2021/01/18 09:39:52;;;;;;;120.20;49.67;;;;;;;;;;5014929;28;20175;-84
2021/01/18 09:42:17;;;;;;;62.77;31.70;;;;;;;;;;5014457;28;20171;-84
2021/01/18 09:44:43;;;;;;;99.00;43.50;;;;;;;;;;5014409;28;20169;-85
2021/01/18 09:47:09;;;;;;;93.87;45.47;;;;;;;;;;5014732;28;20206;-85
2021/01/18 09:49:34;;;;;;;87.60;41.47;;;;;;;;;;5014383;28;20169;-85
2021/01/18 09:52:00;;;;;;;101.83;47.40;;;;;;;;;;4997933;28;20180;-86
2021/01/18 09:54:25;;;;;;;85.57;38.90;;;;;;;;;;4995275;28;20182;-86
2021/01/18 09:56:52;;;;;;;83.10;42.20;;;;;;;;;;4993475;28;20625;-85
2021/01/18 09:59:19;;;;;;;87.87;39.10;;;;;;;;;;4995000;28;20313;-85
2021/01/18 10:01:48;;;;;;;72.70;35.20;;;;;;;;;;4994669;28;20197;-85
2021/01/18 10:04:19;;;;;;;83.33;39.70;;;;;;;;;;4996477;28;20501;-85
2021/01/18 10:06:44;;;;;;;99.40;40.10;;;;;;;;;;5032868;28;20178;-85
2021/01/18 10:09:12;;;;;;;74.67;32.00;;;;;;;;;;5027601;28;20175;-85
2021/01/18 10:11:41;;;;;;;68.60;30.00;;;;;;;;;;5011634;28;20194;-86
2021/01/18 10:14:12;;;;;;;65.43;30.47;;;;;;;;;;5005734;28;20180;-86
2021/01/18 10:16:38;;;;;;;97.23;43.43;;;;;;;;;;5015352;28;20169;-85
2021/01/18 10:19:15;;;;;;;77.27;35.27;;;;;;;;;;5015198;28;20181;-85
2021/01/18 10:21:42;;;;;;;71.00;33.50;;;;;;;;;;5033073;28;20169;-86
2021/01/18 10:24:07;;;;;;;77.20;36.50;;;;;;;;;;5032815;28;20169;-86
2021/01/18 10:26:35;;;;;;;79.27;37.27;;;;;;;;;;5032558;28;20173;-86
2021/01/18 10:29:02;;;;;;;66.67;31.67;;;;;;;;;;5031092;28;20534;-85
2021/01/18 10:31:28;;;;;;;76.67;35.17;;;;;;;;;;5032657;28;20229;-86
2021/01/18 10:34:09;;;;;;;89.20;38.83;;;;;;;;;;5031953;28;20628;-85
2021/01/18 10:36:34;;;;;;;69.30;33.13;;;;;;;;;;5033590;28;20226;-86
2021/01/18 10:38:59;;;;;;;71.50;31.23;;;;;;;;;;5033430;28;20180;-85
2021/01/18 10:41:25;;;;;;;63.83;29.93;;;;;;;;;;5033141;28;20518;-85
2021/01/18 10:43:51;;;;;;;70.03;31.93;;;;;;;;;;5033266;28;20211;-85
2021/01/18 10:46:18;;;;;;;73.00;32.90;;;;;;;;;;5031837;28;20523;-85
2021/01/18 10:48:53;;;;;;;60.57;29.70;;;;;;;;;;5032976;28;20524;-85
2021/01/18 10:51:23;;;;;;;72.17;34.13;;;;;;;;;;5031915;28;20214;-85
2021/01/18 10:53:54;;;;;;;71.60;33.23;;;;;;;;;;5014216;28;20182;-86
2021/01/18 10:56:20;;;;;;;124.13;53.67;;;;;;;;;;4992977;28;20177;-85
2021/01/18 10:58:54;;;;;;;118.57;50.97;;;;;;;;;;4992073;28;20240;-85
2021/01/18 11:01:22;;;;;;;134.77;55.30;;;;;;;;;;4993612;28;20167;-84
2021/01/18 11:03:48;;;;;;;72.93;31.27;;;;;;;;;;4993899;28;20682;-85
2021/01/18 11:06:15;;;;;;;71.73;32.60;;;;;;;;;;4992417;28;20283;-85
2021/01/18 11:08:40;;;;;;;77.60;36.63;;;;;;;;;;4993619;28;20207;-84
2021/01/18 11:11:21;;;;;;;95.83;43.77;;;;;;;;;;4993728;28;20522;-84
2021/01/18 11:13:47;;;;;;;91.43;37.37;;;;;;;;;;4993717;28;20181;-85
2021/01/18 11:16:16;;;;;;;159.70;52.73;;;;;;;;;;5007941;28;20184;-85
2021/01/18 11:18:43;;;;;;;125.67;51.57;;;;;;;;;;5002961;28;20189;-85
2021/01/18 11:21:08;;;;;;;92.80;42.90;;;;;;;;;;4993343;28;20256;-86
2021/01/18 11:23:34;;;;;;;89.83;40.10;;;;;;;;;;4993460;28;20264;-85
2021/01/18 11:25:59;;;;;;;83.30;38.90;;;;;;;;;;4992650;28;20185;-85
2021/01/18 11:28:25;;;;;;;82.43;38.53;;;;;;;;;;4991599;28;20259;-85
2021/01/18 11:30:52;;;;;;;86.10;38.63;;;;;;;;;;4991654;28;20182;-85
2021/01/18 11:33:18;;;;;;;74.73;35.67;;;;;;;;;;4991952;28;20209;-85
2021/01/18 11:35:44;;;;;;;87.23;36.53;;;;;;;;;;4993186;28;20216;-85
2021/01/18 11:38:10;;;;;;;60.87;29.43;;;;;;;;;;4993462;28;20188;-85
2021/01/18 11:40:35;;;;;;;101.73;47.83;;;;;;;;;;5005807;28;20710;-85
2021/01/18 11:43:01;;;;;;;70.10;31.43;;;;;;;;;;5013097;28;20271;-85
2021/01/18 11:45:27;;;;;;;67.93;31.57;;;;;;;;;;5013003;28;20260;-86
2021/01/18 11:47:52;;;;;;;77.20;33.40;;;;;;;;;;5011399;28;20302;-86
2021/01/18 11:50:17;;;;;;;83.77;36.33;;;;;;;;;;5010887;28;20212;-86
2021/01/18 11:52:44;;;;;;;98.67;40.33;;;;;;;;;;5013100;28;20173;-86
2021/01/18 11:55:10;;;;;;;89.60;38.03;;;;;;;;;;5012335;28;20181;-87
2021/01/18 11:57:35;;;;;;;81.83;37.23;;;;;;;;;;5028959;28;20704;-86
2021/01/18 12:00:01;;;;;;;81.30;37.90;;;;;;;;;;5032828;28;20193;-86
2021/01/18 12:02:26;;;;;;;74.53;34.23;;;;;;;;;;5032322;28;20523;-86
2021/01/18 12:04:51;;;;;;;75.93;34.20;;;;;;;;;;5032306;28;20595;-86
2021/01/18 12:07:17;;;;;;;75.73;38.77;;;;;;;;;;5033071;28;20668;-86
2021/01/18 12:09:42;;;;;;;66.17;33.00;;;;;;;;;;5036093;28;20254;-86
2021/01/18 12:12:08;;;;;;;69.57;33.13;;;;;;;;;;5034732;28;20201;-86
2021/01/18 12:14:39;;;;;;;80.73;39.37;;;;;;;;;;5035445;28;20254;-86
2021/01/18 12:17:05;;;;;;;83.17;38.90;;;;;;;;;;5036258;28;20199;-86
2021/01/18 12:19:30;;;;;;;64.23;28.83;;;;;;;;;;5035130;28;20208;-86
2021/01/18 12:21:56;;;;;;;86.53;40.13;;;;;;;;;;5033087;28;20176;-86
2021/01/18 12:24:21;;;;;;;94.37;40.37;;;;;;;;;;5034361;28;20187;-85
2021/01/18 12:26:50;;;;;;;103.33;46.50;;;;;;;;;;5035502;28;20172;-86
2021/01/18 12:29:16;;;;;;;73.03;34.07;;;;;;;;;;5035793;28;20254;-86
2021/01/18 12:31:44;;;;;;;88.27;38.40;;;;;;;;;;5025440;28;20372;-86
2021/01/18 12:34:10;;;;;;;88.10;36.10;;;;;;;;;;5014946;28;20192;-86
2021/01/18 12:36:35;;;;;;;99.80;42.47;;;;;;;;;;5016056;28;20567;-86
2021/01/18 12:39:00;;;;;;;114.60;44.80;;;;;;;;;;5015684;28;20173;-86
2021/01/18 12:41:26;;;;;;;81.90;34.90;;;;;;;;;;5015611;28;20176;-85
2021/01/18 12:43:52;;;;;;;63.03;29.87;;;;;;;;;;5014941;28;20699;-86
2021/01/18 12:46:18;;;;;;;62.77;29.93;;;;;;;;;;5014547;28;20179;-87
2021/01/18 12:48:44;;;;;;;63.07;27.20;;;;;;;;;;5015775;28;20296;-85
2021/01/18 12:51:13;;;;;;;56.97;27.77;;;;;;;;;;5015616;28;20616;-85
2021/01/18 12:53:44;;;;;;;72.57;33.90;;;;;;;;;;5015861;28;20536;-86
2021/01/18 12:56:21;;;;;;;71.40;34.53;;;;;;;;;;5014309;28;20161;-86
2021/01/18 12:58:47;;;;;;;58.33;27.50;;;;;;;;;;5014084;28;20236;-85
2021/01/18 13:01:12;;;;;;;149.00;51.30;;;;;;;;;;5015291;28;20184;-86
2021/01/18 13:03:38;;;;;;;104.00;46.20;;;;;;;;;;5015067;28;20258;-85
2021/01/18 13:06:03;;;;;;;75.20;35.77;;;;;;;;;;5015894;28;20180;-86
2021/01/18 13:08:29;;;;;;;68.03;30.43;;;;;;;;;;5015154;28;20204;-86
2021/01/18 13:11:00;;;;;;;67.07;30.40;;;;;;;;;;5015157;28;20213;-86
2021/01/18 13:13:26;;;;;;;55.37;29.13;;;;;;;;;;5015115;28;20165;-87
2021/01/18 13:15:52;;;;;;;56.97;28.40;;;;;;;;;;5014402;28;20545;-87
2021/01/18 13:18:17;;;;;;;57.30;27.20;;;;;;;;;;5014881;28;20189;-88
2021/01/18 13:20:45;;;;;;;57.47;27.23;;;;;;;;;;5015585;28;20219;-87
2021/01/18 13:23:14;;;;;;;71.33;32.60;;;;;;;;;;4998061;28;20181;-86
2021/01/18 13:25:39;;;;;;;69.20;32.50;;;;;;;;;;5013905;28;20181;-87
2021/01/18 13:28:05;;;;;;;104.57;40.10;;;;;;;;;;5014877;28;20638;-87
2021/01/18 13:30:30;;;;;;;59.47;26.70;;;;;;;;;;5013594;28;20184;-87
2021/01/18 13:32:56;;;;;;;58.30;28.90;;;;;;;;;;5013882;28;20275;-87
2021/01/18 13:35:21;;;;;;;63.00;29.97;;;;;;;;;;5014632;28;20201;-86
2021/01/18 13:37:46;;;;;;;68.33;29.00;;;;;;;;;;5014818;28;20210;-87
2021/01/18 13:40:14;;;;;;;63.70;30.37;;;;;;;;;;5014878;28;20238;-86
2021/01/18 13:42:40;;;;;;;66.53;28.47;;;;;;;;;;5013889;28;20173;-86
2021/01/18 13:45:05;;;;;;;63.63;26.97;;;;;;;;;;5013385;28;20227;-86
2021/01/18 13:47:31;;;;;;;53.47;25.37;;;;;;;;;;5014637;28;20235;-87
2021/01/18 13:50:01;;;;;;;66.10;28.93;;;;;;;;;;5013205;28;20256;-87
2021/01/18 13:52:26;;;;;;;141.77;46.37;;;;;;;;;;5015177;28;20177;-86
2021/01/18 13:54:55;;;;;;;261.30;74.60;;;;;;;;;;5010024;28;20187;-87
2021/01/18 13:57:21;;;;;;;235.53;75.07;;;;;;;;;;5013921;28;20188;-86
2021/01/18 13:59:49;;;;;;;316.13;80.57;;;;;;;;;;5029492;28;20204;-86
2021/01/18 14:02:18;;;;;;;290.40;79.13;;;;;;;;;;5034375;28;20180;-87
2021/01/18 14:04:43;;;;;;;213.30;56.37;;;;;;;;;;5033945;28;20186;-86
2021/01/18 14:07:08;;;;;;;270.93;72.27;;;;;;;;;;5021380;28;20211;-88
2021/01/18 14:09:34;;;;;;;348.63;87.43;;;;;;;;;;5013895;28;20204;-87
2021/01/18 14:11:59;;;;;;;396.80;101.30;;;;;;;;;;5014296;28;20227;-88
2021/01/18 14:14:26;;;;;;;323.80;84.17;;;;;;;;;;5027684;28;20195;-87
2021/01/18 14:16:51;;;;;;;641.90;148.43;;;;;;;;;;5029255;28;20711;-87